createdAt,value
2019-03-12T00:01:18.788Z,101196.14
2019-03-12T00:03:46.103Z,101187.17
2019-03-12T00:06:13.227Z,101185.38
2019-03-12T00:08:40.320Z,101182.37
2019-03-12T00:11:07.520Z,101185.03
2019-03-12T00:13:34.887Z,101189.14
2019-03-12T00:16:01.947Z,101188.90
2019-03-12T00:18:29.103Z,101207.48
2019-03-12T00:20:56.155Z,101206.05
2019-03-12T00:23:23.264Z,101216.16
2019-03-12T00:25:50.330Z,101226.99
2019-03-12T00:28:17.991Z,101236.53
2019-03-12T00:30:45.384Z,101238.81
2019-03-12T00:33:12.482Z,101246.81
2019-03-12T00:35:40.551Z,101241.24
2019-03-12T00:38:07.584Z,101245.02
2019-03-12T00:40:34.678Z,101244.16
2019-03-12T00:43:02.030Z,101246.69
2019-03-12T00:45:29.098Z,101232.63
2019-03-12T00:47:56.183Z,101231.81
2019-03-12T00:50:23.865Z,101226.05
2019-03-12T00:52:50.880Z,101222.23
2019-03-12T00:55:18.042Z,101215.41
2019-03-12T00:57:46.298Z,101202.02
2019-03-12T01:00:15.109Z,101199.51
2019-03-12T01:02:42.162Z,101198.80
2019-03-12T01:05:09.413Z,101189.73
2019-03-12T01:07:36.857Z,101200.68
2019-03-12T01:10:05.508Z,101216.41
2019-03-12T01:12:32.790Z,101227.38
2019-03-12T01:14:59.854Z,101234.51
2019-03-12T01:17:27.035Z,101236.80
2019-03-12T01:19:54.069Z,101240.18
2019-03-12T01:22:21.738Z,101246.55
2019-03-12T01:24:49.631Z,101251.88
2019-03-12T01:27:16.734Z,101246.89
2019-03-12T01:29:44.965Z,101235.80
2019-03-12T01:32:12.100Z,101230.16
2019-03-12T01:34:39.433Z,101230.25
2019-03-12T01:37:06.521Z,101213.45
2019-03-12T01:39:33.571Z,101216.02
2019-03-12T01:42:00.616Z,101218.42
2019-03-12T01:44:27.914Z,101224.95
2019-03-12T01:46:54.956Z,101238.60
2019-03-12T01:49:22.357Z,101241.76
2019-03-12T01:51:49.423Z,101253.74
2019-03-12T01:54:16.531Z,101267.37
2019-03-12T01:56:44.100Z,101269.75
2019-03-12T01:59:11.175Z,101274.45
2019-03-12T02:01:38.241Z,101271.73
2019-03-12T02:04:06.511Z,101266.47
2019-03-12T02:06:34.024Z,101263.16
2019-03-12T02:09:01.077Z,101257.93
2019-03-12T02:11:30.011Z,101255.67
2019-03-12T02:13:57.442Z,101260.78
2019-03-12T02:16:24.508Z,101250.63
2019-03-12T02:18:51.557Z,101249.72
2019-03-12T02:21:18.617Z,101245.25
2019-03-12T02:23:45.666Z,101248.56
2019-03-12T02:26:12.714Z,101251.83
2019-03-12T02:28:40.363Z,101253.22
2019-03-12T02:31:07.497Z,101249.03
2019-03-12T02:33:35.654Z,101249.85
2019-03-12T02:36:03.514Z,101253.48
2019-03-12T02:38:30.552Z,101250.49
2019-03-12T02:40:57.594Z,101251.86
2019-03-12T02:43:27.472Z,101247.30
2019-03-12T02:45:54.644Z,101244.47
2019-03-12T02:48:22.797Z,101247.72
2019-03-12T02:50:50.226Z,101245.80
2019-03-12T02:53:17.295Z,101257.75
2019-03-12T02:55:44.368Z,101248.38
2019-03-12T02:58:11.484Z,101247.30
2019-03-12T03:00:38.542Z,101246.58
2019-03-12T03:03:05.618Z,101248.34
2019-03-12T03:05:36.812Z,101239.27
2019-03-12T03:08:06.843Z,101238.30
2019-03-12T03:10:34.190Z,101240.67
2019-03-12T03:13:01.222Z,101242.85
2019-03-12T03:15:32.974Z,101241.00
2019-03-12T03:18:00.045Z,101242.94
2019-03-12T03:20:27.060Z,101247.86
2019-03-12T03:22:54.165Z,101244.83
2019-03-12T03:25:21.362Z,101248.88
2019-03-12T03:27:48.560Z,101250.87
2019-03-12T03:30:18.547Z,101256.87
2019-03-12T03:32:46.050Z,101262.94
2019-03-12T03:35:13.161Z,101259.62
2019-03-12T03:37:40.226Z,101265.38
2019-03-12T03:40:07.272Z,101263.19
2019-03-12T03:42:34.297Z,101253.92
2019-03-12T03:45:01.389Z,101250.97
2019-03-12T03:47:28.733Z,101245.19
2019-03-12T03:49:55.769Z,101241.84
2019-03-12T03:52:22.830Z,101234.12
2019-03-12T03:54:49.872Z,101233.21
2019-03-12T03:57:16.916Z,101234.88
2019-03-12T03:59:44.480Z,101234.11
2019-03-12T04:02:11.849Z,101226.56
2019-03-12T04:04:39.991Z,101233.91
2019-03-12T04:07:08.864Z,101229.27
2019-03-12T04:09:36.534Z,101218.20
2019-03-12T04:12:03.685Z,101210.93
2019-03-12T04:14:30.864Z,101215.59
2019-03-12T04:16:58.567Z,101214.69
2019-03-12T04:19:25.632Z,101220.24
2019-03-12T04:21:52.707Z,101222.33
2019-03-12T04:24:20.248Z,101223.48
2019-03-12T04:26:50.401Z,101225.03
2019-03-12T04:29:17.470Z,101219.73
2019-03-12T04:31:44.550Z,101219.73
2019-03-12T04:34:16.938Z,101226.65
2019-03-12T04:36:44.549Z,101222.38
2019-03-12T04:39:11.932Z,101216.83
2019-03-12T04:41:38.963Z,101207.91
2019-03-12T04:44:06.076Z,101206.20
2019-03-12T04:46:33.112Z,101204.75
2019-03-12T04:49:00.144Z,101203.98
2019-03-12T04:51:27.204Z,101195.53
2019-03-12T04:53:54.568Z,101194.83
2019-03-12T04:56:21.589Z,101191.92
2019-03-12T04:58:48.687Z,101185.95
2019-03-12T05:01:15.821Z,101182.02
2019-03-12T05:03:42.851Z,101186.76
2019-03-12T05:06:09.936Z,101177.75
2019-03-12T05:08:37.617Z,101175.92
2019-03-12T05:11:04.696Z,101171.73
2019-03-12T05:13:31.768Z,101167.55
2019-03-12T05:15:59.229Z,101172.37
2019-03-12T05:18:26.335Z,101171.09
2019-03-12T05:20:53.423Z,101172.75
2019-03-12T05:23:21.126Z,101172.09
2019-03-12T05:25:50.142Z,101173.80
2019-03-12T05:28:17.634Z,101166.55
2019-03-12T05:30:44.694Z,101161.23
2019-03-12T05:33:12.131Z,101164.09
2019-03-12T05:35:40.948Z,101163.41
2019-03-12T05:38:08.013Z,101162.17
2019-03-12T05:40:35.368Z,101165.87
2019-03-12T05:43:02.488Z,101155.63
2019-03-12T05:45:29.613Z,101152.64
2019-03-12T05:47:56.650Z,101148.03
2019-03-12T05:50:23.731Z,101152.27
2019-03-12T05:52:52.654Z,101155.78
2019-03-12T05:55:19.674Z,101154.30
2019-03-12T05:57:46.729Z,101151.12
2019-03-12T06:00:17.289Z,101154.11
2019-03-12T06:03:03.412Z,101150.41
2019-03-12T06:08:30.131Z,101159.94
2019-03-12T06:10:57.193Z,101161.25
2019-03-12T06:13:24.389Z,101159.82
2019-03-12T06:15:54.025Z,101155.59
2019-03-12T06:18:22.045Z,101153.28
2019-03-12T06:20:49.081Z,101155.52
2019-03-12T06:23:16.126Z,101150.67
2019-03-12T06:25:43.140Z,101158.02
2019-03-12T06:28:10.198Z,101154.97
2019-03-12T06:30:48.800Z,101162.12
2019-03-12T06:33:24.136Z,101157.09
2019-03-12T06:36:03.089Z,101154.22
2019-03-12T06:38:39.694Z,101156.72
2019-03-12T06:41:29.800Z,101157.89
2019-03-12T06:44:25.246Z,101159.84
2019-03-12T06:47:10.711Z,101154.47
2019-03-12T06:50:15.750Z,101149.14
2019-03-12T06:52:59.730Z,101138.50
2019-03-12T06:55:36.670Z,101136.10
2019-03-12T06:58:35.769Z,101132.91
2019-03-12T07:01:26.168Z,101130.50
2019-03-12T07:04:05.402Z,101125.28
2019-03-12T07:07:00.917Z,101123.66
2019-03-12T07:09:47.899Z,101115.39
2019-03-12T07:12:27.356Z,101106.53
2019-03-12T07:15:08.997Z,101096.30
2019-03-12T07:17:45.723Z,101091.45
2019-03-12T07:20:22.260Z,101094.76
2019-03-12T07:23:18.304Z,101093.53
2019-03-12T07:25:56.318Z,101100.59
2019-03-12T07:28:29.709Z,101091.81
2019-03-12T07:31:13.423Z,101092.11
2019-03-12T07:34:06.547Z,101097.52
2019-03-12T07:36:42.468Z,101084.30
2019-03-12T07:39:28.486Z,101075.30
2019-03-12T07:42:17.895Z,101077.89
2019-03-12T07:44:56.642Z,101064.22
2019-03-12T07:47:47.099Z,101059.70
2019-03-12T07:50:37.412Z,101057.78
2019-03-12T07:53:16.433Z,101053.45
2019-03-12T07:55:59.700Z,101053.13
2019-03-12T07:58:45.323Z,101046.95
2019-03-12T08:01:24.922Z,101038.09
2019-03-12T08:04:15.145Z,101035.45
2019-03-12T08:06:50.117Z,101012.64
2019-03-12T08:09:39.887Z,101032.14
2019-03-12T08:12:14.089Z,101017.78
2019-03-12T08:15:07.824Z,101020.37
2019-03-12T08:17:48.802Z,101008.66
2019-03-12T08:20:40.980Z,101007.09
2019-03-12T08:23:30.506Z,100999.86
2019-03-12T08:26:32.432Z,100996.44
2019-03-12T08:29:19.424Z,100977.20
2019-03-12T08:32:10.657Z,100979.26
2019-03-12T08:34:58.100Z,100972.33
2019-03-12T08:37:33.726Z,100955.63
2019-03-12T08:40:19.326Z,100959.09
2019-03-12T08:43:12.308Z,100948.89
2019-03-12T08:46:05.192Z,100952.48
2019-03-12T08:48:39.083Z,100947.12
2019-03-12T08:51:26.211Z,100940.41
2019-03-12T08:54:06.873Z,100942.00
2019-03-12T08:56:45.016Z,100938.11
2019-03-12T08:59:43.803Z,100923.98
2019-03-12T09:02:31.910Z,100918.86
2019-03-12T09:05:31.007Z,100910.95
2019-03-12T09:08:23.877Z,100897.73
2019-03-12T09:11:09.184Z,100891.16
2019-03-12T09:13:44.852Z,100895.64
2019-03-12T09:16:21.739Z,100885.20
2019-03-12T09:19:23.836Z,100881.44
2019-03-12T09:22:04.802Z,100884.97
2019-03-12T09:24:54.344Z,100864.32
2019-03-12T09:27:42.659Z,100863.80
2019-03-12T09:30:39.632Z,100846.20
2019-03-12T09:33:14.348Z,100845.73
2019-03-12T09:36:00.990Z,100831.00
2019-03-12T09:38:36.452Z,100836.53
2019-03-12T09:41:38.674Z,100833.97
2019-03-12T09:44:24.750Z,100816.73
2019-03-12T09:47:03.983Z,100825.49
2019-03-12T09:49:42.711Z,100820.58
2019-03-12T09:52:32.374Z,100826.70
2019-03-12T09:55:06.495Z,100810.95
2019-03-12T09:57:53.169Z,100785.76
2019-03-12T10:00:29.710Z,100795.86
2019-03-12T10:03:22.252Z,100782.73
2019-03-12T10:06:07.778Z,100782.91
2019-03-12T10:09:01.528Z,100774.48
2019-03-12T10:11:45.480Z,100767.69
2019-03-12T10:14:30.867Z,100762.48
2019-03-12T10:17:08.997Z,100746.89
2019-03-12T10:19:55.674Z,100745.21
2019-03-12T10:22:42.385Z,100751.83
2019-03-12T10:25:19.873Z,100752.08
2019-03-12T10:28:05.683Z,100735.72
2019-03-12T10:30:50.661Z,100733.11
2019-03-12T10:33:24.754Z,100738.13
2019-03-12T10:36:07.249Z,100716.45
2019-03-12T10:39:33.829Z,100707.20
2019-03-12T10:42:19.692Z,100711.45
2019-03-12T10:45:01.252Z,100703.69
2019-03-12T10:47:28.744Z,100697.77
2019-03-12T10:49:56.035Z,100694.01
2019-03-12T10:52:24.225Z,100684.61
2019-03-12T10:54:52.256Z,100679.91
2019-03-12T10:57:21.595Z,100675.95
2019-03-12T10:59:49.497Z,100671.98
2019-03-12T11:02:17.251Z,100665.44
2019-03-12T11:04:44.319Z,100652.91
2019-03-12T11:07:16.564Z,100648.48
2019-03-12T11:09:40.416Z,100650.89
2019-03-12T11:12:07.474Z,100642.49
2019-03-12T11:14:34.565Z,100643.33
2019-03-12T11:17:02.067Z,100642.62
2019-03-12T11:19:29.102Z,100632.05
2019-03-12T11:21:58.839Z,100627.67
2019-03-12T11:24:25.921Z,100622.67
2019-03-12T11:26:58.737Z,100610.28
2019-03-12T11:29:25.826Z,100600.42
2019-03-12T11:31:53.387Z,100597.09
2019-03-12T11:34:21.644Z,100596.52
2019-03-12T11:36:48.758Z,100586.33
2019-03-12T11:39:16.318Z,100574.66
2019-03-12T11:41:43.624Z,100572.69
2019-03-12T11:44:10.780Z,100570.67
2019-03-12T11:46:44.218Z,100555.70
2019-03-12T11:49:06.762Z,100552.72
2019-03-12T11:51:33.975Z,100550.50
2019-03-12T11:54:01.078Z,100540.52
2019-03-12T11:56:28.864Z,100530.33
2019-03-12T11:58:55.920Z,100517.45
2019-03-12T12:01:23.196Z,100526.70
2019-03-12T12:03:50.901Z,100505.03
2019-03-12T12:06:17.995Z,100500.20
2019-03-12T12:08:45.037Z,100490.50
2019-03-12T12:11:12.461Z,100492.81
2019-03-12T12:13:39.620Z,100487.23
2019-03-12T12:16:06.960Z,100473.20
2019-03-12T12:18:34.486Z,100463.86
2019-03-12T12:21:03.613Z,100453.30
2019-03-12T12:23:35.536Z,100446.72
2019-03-12T12:26:02.663Z,100430.25
2019-03-12T12:28:29.767Z,100426.60
2019-03-12T12:30:56.841Z,100427.11
2019-03-12T12:33:23.920Z,100409.59
2019-03-12T12:35:52.278Z,100411.66
2019-03-12T12:38:20.801Z,100392.14
2019-03-12T12:40:47.907Z,100400.83
2019-03-12T12:43:15.068Z,100384.14
2019-03-12T12:45:42.205Z,100368.80
2019-03-12T12:48:09.391Z,100371.69
2019-03-12T12:50:37.713Z,100361.72
2019-03-12T12:53:06.355Z,100353.00
2019-03-12T12:55:33.487Z,100354.61
2019-03-12T12:58:00.662Z,100332.48
2019-03-12T13:00:28.594Z,100335.11
2019-03-12T13:02:55.783Z,100323.02
2019-03-12T13:05:22.859Z,100317.84
2019-03-12T13:07:54.671Z,100314.34
2019-03-12T13:10:25.553Z,100308.53
2019-03-12T13:12:54.513Z,100309.97
2019-03-12T13:15:21.832Z,100299.70
2019-03-12T13:17:49.381Z,100294.47
2019-03-12T13:20:16.890Z,100297.31
2019-03-12T13:22:43.922Z,100289.83
2019-03-12T13:25:11.304Z,100271.00
2019-03-12T13:27:42.418Z,100282.28
2019-03-12T13:30:09.966Z,100279.78
2019-03-12T13:32:38.254Z,100276.25
2019-03-12T13:35:07.342Z,100267.28
2019-03-12T13:37:45.363Z,100251.59
2019-03-12T13:40:15.188Z,100252.21
2019-03-12T13:42:42.251Z,100242.90
2019-03-12T13:45:11.085Z,100226.83
2019-03-12T13:47:38.337Z,100225.86
2019-03-12T13:50:06.179Z,100219.91
2019-03-12T13:52:33.735Z,100205.88
2019-03-12T13:55:02.087Z,100192.83
2019-03-12T13:57:31.046Z,100195.75
2019-03-12T13:59:58.470Z,100180.41
2019-03-12T14:02:29.742Z,100170.85
2019-03-12T14:04:57.657Z,100165.27
2019-03-12T14:07:27.674Z,100170.55
2019-03-12T14:09:57.371Z,100154.79
2019-03-12T14:12:26.325Z,100150.50
2019-03-12T14:14:53.427Z,100149.20
2019-03-12T14:17:20.479Z,100136.03
2019-03-12T14:19:47.667Z,100119.66
2019-03-12T14:22:15.259Z,100123.42
2019-03-12T14:24:42.681Z,100109.41
2019-03-12T14:27:10.397Z,100108.09
2019-03-12T14:29:37.527Z,100105.19
2019-03-12T14:32:04.879Z,100103.66
2019-03-12T14:34:38.630Z,100088.28
2019-03-12T14:37:08.444Z,100078.66
2019-03-12T14:39:35.521Z,100084.23
2019-03-12T14:42:03.119Z,100079.22
2019-03-12T14:44:30.310Z,100066.61
2019-03-12T14:46:57.345Z,100055.25
2019-03-12T14:49:24.451Z,100062.80
2019-03-12T14:52:16.676Z,100057.77
2019-03-12T14:54:43.940Z,100042.76
2019-03-12T14:57:10.982Z,100017.69
2019-03-12T14:59:38.069Z,100022.42
2019-03-12T15:02:06.260Z,100013.56
2019-03-12T15:04:34.457Z,100004.02
2019-03-12T15:07:01.575Z,100001.89
2019-03-12T15:09:29.092Z,99986.50
2019-03-12T15:11:56.256Z,99981.37
2019-03-12T15:14:23.579Z,99967.85
2019-03-12T15:16:50.743Z,99957.81
2019-03-12T15:19:18.247Z,99936.81
2019-03-12T15:21:46.416Z,99930.38
2019-03-12T15:24:13.559Z,99911.30
2019-03-12T15:26:40.640Z,99918.41
2019-03-12T15:29:07.866Z,99909.61
2019-03-12T15:31:35.231Z,99896.15
2019-03-12T15:34:02.785Z,99874.80
2019-03-12T15:36:29.870Z,99879.55
2019-03-12T15:38:57.086Z,99874.89
2019-03-12T15:41:24.596Z,99867.02
2019-03-12T15:43:53.554Z,99871.53
2019-03-12T15:46:20.655Z,99868.82
2019-03-12T15:48:48.005Z,99849.06
2019-03-12T15:51:15.500Z,99845.93
2019-03-12T15:53:42.637Z,99842.13
2019-03-12T15:56:10.923Z,99821.64
2019-03-12T15:58:39.166Z,99823.31
2019-03-12T16:01:06.306Z,99820.55
2019-03-12T16:03:35.194Z,99816.58
2019-03-12T16:06:02.371Z,99804.52
2019-03-12T16:08:29.452Z,99798.32
2019-03-12T16:10:58.500Z,99795.84
2019-03-12T16:13:27.595Z,99787.36
2019-03-12T16:15:55.294Z,99779.77
2019-03-12T16:18:22.372Z,99771.80
2019-03-12T16:20:49.455Z,99766.11
2019-03-12T16:23:18.257Z,99763.36
2019-03-12T16:25:45.531Z,99755.06
2019-03-12T16:28:12.712Z,99741.06
2019-03-12T16:30:39.952Z,99730.17
2019-03-12T16:33:09.744Z,99719.23
2019-03-12T16:35:37.046Z,99716.48
2019-03-12T16:38:06.857Z,99707.98
2019-03-12T16:40:33.622Z,99707.21
2019-03-12T16:43:01.308Z,99703.04
2019-03-12T16:45:28.401Z,99698.56
2019-03-12T16:47:55.653Z,99690.16
2019-03-12T16:50:22.908Z,99680.00
2019-03-12T16:52:50.328Z,99679.31
2019-03-12T16:55:17.539Z,99674.46
2019-03-12T16:57:46.965Z,99662.06
2019-03-12T17:00:18.013Z,99648.05
2019-03-12T17:02:50.134Z,99639.65
2019-03-12T17:05:30.738Z,99615.66
2019-03-12T17:08:00.962Z,99616.95
2019-03-12T17:10:28.449Z,99611.08
2019-03-12T17:12:55.920Z,99598.67
2019-03-12T17:15:23.202Z,99588.37
2019-03-12T17:17:50.410Z,99587.23
2019-03-12T17:20:18.365Z,99573.73
2019-03-12T17:22:47.629Z,99568.40
2019-03-12T17:25:15.887Z,99561.70
2019-03-12T17:27:43.230Z,99555.81
2019-03-12T17:30:15.562Z,99542.41
2019-03-12T17:32:43.114Z,99545.41
2019-03-12T17:35:11.556Z,99538.55
2019-03-12T17:37:39.624Z,99536.52
2019-03-12T17:40:10.769Z,99536.59
2019-03-12T17:42:37.961Z,99532.12
2019-03-12T17:45:06.943Z,99528.72
2019-03-12T17:47:34.373Z,99521.52
2019-03-12T17:50:01.495Z,99515.31
2019-03-12T17:52:31.543Z,99511.47
2019-03-12T17:54:58.771Z,99515.36
2019-03-12T17:57:25.993Z,99512.50
2019-03-12T17:59:54.951Z,99497.64
2019-03-12T18:02:27.192Z,99486.91
2019-03-12T18:05:02.865Z,99481.63
2019-03-12T18:07:31.075Z,99472.73
2019-03-12T18:09:59.344Z,99458.42
2019-03-12T18:12:26.402Z,99461.66
2019-03-12T18:14:53.659Z,99448.13
2019-03-12T18:17:21.398Z,99444.73
2019-03-12T18:19:50.348Z,99443.59
2019-03-12T18:22:17.498Z,99437.80
2019-03-12T18:24:45.837Z,99421.52
2019-03-12T18:27:12.910Z,99423.13
2019-03-12T18:29:40.011Z,99427.27
2019-03-12T18:32:07.078Z,99415.80
2019-03-12T18:34:34.635Z,99408.77
2019-03-12T18:37:03.551Z,99387.30
2019-03-12T18:39:31.091Z,99399.94
2019-03-12T18:41:59.252Z,99386.15
2019-03-12T18:44:26.391Z,99383.00
2019-03-12T18:46:59.916Z,99377.75
2019-03-12T18:49:27.532Z,99363.41
2019-03-12T18:51:54.694Z,99367.16
2019-03-12T18:54:22.517Z,99362.10
2019-03-12T18:56:49.712Z,99358.55
2019-03-12T18:59:18.670Z,99350.81
2019-03-12T19:01:45.734Z,99354.70
2019-03-12T19:04:12.832Z,99344.57
2019-03-12T19:06:40.270Z,99346.19
2019-03-12T19:09:08.525Z,99341.04
2019-03-12T19:11:37.491Z,99348.55
2019-03-12T19:14:05.349Z,99320.77
2019-03-12T19:16:32.539Z,99324.75
2019-03-12T19:18:59.763Z,99312.98
2019-03-12T19:21:27.128Z,99301.67
2019-03-12T19:23:54.202Z,99297.65
2019-03-12T19:26:21.401Z,99276.66
2019-03-12T19:28:48.510Z,99282.19
2019-03-12T19:31:32.634Z,99274.30
2019-03-12T19:34:05.688Z,99274.06
2019-03-12T19:36:32.807Z,99269.37
2019-03-12T19:38:59.904Z,99261.69
2019-03-12T19:41:27.526Z,99256.75
2019-03-12T19:43:55.737Z,99230.92
2019-03-12T19:46:22.978Z,99225.50
2019-03-12T19:48:50.134Z,99221.47
2019-03-12T19:51:17.484Z,99221.97
2019-03-12T19:53:44.595Z,99213.46
2019-03-12T19:56:13.238Z,99209.09
2019-03-12T19:58:40.373Z,99207.93
2019-03-12T20:01:08.204Z,99199.06
2019-03-12T20:03:35.392Z,99200.59
2019-03-12T20:06:02.789Z,99184.09
2019-03-12T20:08:30.203Z,99188.23
2019-03-12T20:11:28.796Z,99180.91
2019-03-12T20:14:25.067Z,99162.53
2019-03-12T20:17:45.651Z,99160.42
2019-03-12T20:21:06.776Z,99141.39
2019-03-12T20:24:01.129Z,99141.16
2019-03-12T20:27:15.006Z,99118.22
2019-03-12T20:30:11.752Z,99116.26
2019-03-12T20:33:30.044Z,99107.06
2019-03-12T20:36:41.036Z,99101.73
2019-03-12T20:39:47.148Z,99102.48
2019-03-12T20:42:50.973Z,99089.70
2019-03-12T20:45:52.411Z,99095.34
2019-03-12T20:48:45.131Z,99093.76
2019-03-12T20:51:49.509Z,99069.03
2019-03-12T20:55:19.782Z,99079.30
2019-03-12T20:58:24.222Z,99073.18
2019-03-12T21:01:30.778Z,99053.95
2019-03-12T21:04:32.840Z,99054.53
2019-03-12T21:08:06.249Z,99048.87
2019-03-12T21:11:27.776Z,99057.20
2019-03-12T21:14:12.931Z,99041.77
2019-03-12T21:17:27.673Z,99036.53
2019-03-12T21:20:44.347Z,99035.25
2019-03-12T21:23:40.335Z,99038.36
2019-03-12T21:26:45.290Z,99043.56
2019-03-12T21:29:38.967Z,99038.81
2019-03-12T21:32:07.239Z,99048.17
2019-03-12T21:34:34.307Z,99036.06
2019-03-12T21:37:01.627Z,99035.31
2019-03-12T21:39:29.469Z,99040.44
2019-03-12T21:41:57.375Z,99029.52
2019-03-12T21:44:24.546Z,99025.52
2019-03-12T21:46:51.742Z,99017.82
2019-03-12T21:49:20.038Z,99017.25
2019-03-12T21:51:47.283Z,99016.31
2019-03-12T21:54:14.365Z,99029.28
2019-03-12T21:56:41.982Z,99022.28
2019-03-12T21:59:09.079Z,99013.45
2019-03-12T22:01:36.262Z,99012.48
2019-03-12T22:04:03.423Z,99023.80
2019-03-12T22:06:30.446Z,99012.89
2019-03-12T22:08:57.666Z,99017.97
2019-03-12T22:11:28.391Z,99023.87
2019-03-12T22:13:55.699Z,99013.74
2019-03-12T22:16:22.903Z,99017.52
2019-03-12T22:18:50.579Z,99021.16
2019-03-12T22:21:22.895Z,99012.90
2019-03-12T22:23:49.953Z,99007.36
2019-03-12T22:26:17.244Z,99007.48
2019-03-12T22:28:45.482Z,99008.66
2019-03-12T22:31:13.149Z,99016.05
2019-03-12T22:33:40.303Z,99015.59
2019-03-12T22:36:07.339Z,99021.27
2019-03-12T22:38:35.808Z,99017.70
2019-03-12T22:41:06.152Z,99014.98
2019-03-12T22:43:33.168Z,99016.64
2019-03-12T22:46:00.375Z,99019.08
2019-03-12T22:48:27.780Z,99013.89
2019-03-12T22:50:54.825Z,99019.06
2019-03-12T22:53:21.939Z,99016.80
2019-03-12T22:55:49.011Z,99017.16
2019-03-12T22:58:16.101Z,99017.48
2019-03-12T23:01:02.493Z,99022.43
2019-03-12T23:03:47.986Z,99020.42
2019-03-12T23:06:33.684Z,99019.12
2019-03-12T23:09:21.004Z,99017.91
2019-03-12T23:11:50.011Z,99024.41
2019-03-12T23:14:17.528Z,99018.01
2019-03-12T23:16:46.463Z,99032.39
2019-03-12T23:19:13.679Z,99032.36
2019-03-12T23:21:41.409Z,99035.31
2019-03-12T23:24:08.778Z,99050.58
2019-03-12T23:26:36.070Z,99058.13
2019-03-12T23:29:03.362Z,99078.17
2019-03-12T23:31:30.613Z,99094.25
2019-03-12T23:33:57.919Z,99097.86
2019-03-12T23:36:25.212Z,99116.53
2019-03-12T23:38:52.829Z,99133.72
2019-03-12T23:41:19.915Z,99142.75
2019-03-12T23:43:46.991Z,99157.61
2019-03-12T23:46:14.129Z,99155.59
2019-03-12T23:48:41.466Z,99152.41
2019-03-12T23:51:08.526Z,99159.78
2019-03-12T23:53:36.087Z,99185.97
2019-03-12T23:56:04.949Z,99195.45
2019-03-12T23:58:31.993Z,99222.98
